sensor_id;sensor_type;location;lat;lon;timestamp;pressure;altitude;pressure_sealevel;temperature;humidity
29239;BME280;16267;48.194;11.546;2023-11-21T00:00:22;95473.59;;;8.09;87.45
29239;BME280;16267;48.194;11.546;2023-11-21T00:02:48;95470.22;;;8.04;88.00
29239;BME280;16267;48.194;11.546;2023-11-21T00:05:14;95462.94;;;8.05;88.86
29239;BME280;16267;48.194;11.546;2023-11-21T00:07:41;95468.28;;;8.05;88.98
29239;BME280;16267;48.194;11.546;2023-11-21T00:10:08;95465.69;;;7.94;90.21
29239;BME280;16267;48.194;11.546;2023-11-21T00:12:34;95462.72;;;7.85;91.67
29239;BME280;16267;48.194;11.546;2023-11-21T00:15:00;95467.28;;;7.88;92.24
29239;BME280;16267;48.194;11.546;2023-11-21T00:17:27;95465.78;;;7.87;91.86
29239;BME280;16267;48.194;11.546;2023-11-21T00:19:53;95452.34;;;7.94;92.33
29239;BME280;16267;48.194;11.546;2023-11-21T00:22:19;95452.50;;;7.76;93.99
29239;BME280;16267;48.194;11.546;2023-11-21T00:24:46;95440.28;;;7.75;93.19
29239;BME280;16267;48.194;11.546;2023-11-21T00:27:12;95444.81;;;7.82;94.22
29239;BME280;16267;48.194;11.546;2023-11-21T00:29:38;95428.75;;;7.86;94.24
29239;BME280;16267;48.194;11.546;2023-11-21T00:32:05;95424.16;;;7.86;92.41
29239;BME280;16267;48.194;11.546;2023-11-21T00:34:32;95422.25;;;7.87;93.75
29239;BME280;16267;48.194;11.546;2023-11-21T00:36:58;95412.34;;;7.87;94.46
29239;BME280;16267;48.194;11.546;2023-11-21T00:39:24;95414.97;;;7.91;93.06
29239;BME280;16267;48.194;11.546;2023-11-21T00:41:52;95411.56;;;7.90;92.58
29239;BME280;16267;48.194;11.546;2023-11-21T00:44:18;95400.50;;;7.88;93.00
29239;BME280;16267;48.194;11.546;2023-11-21T00:46:44;95402.38;;;7.91;93.48
29239;BME280;16267;48.194;11.546;2023-11-21T00:49:09;95396.63;;;7.93;92.55
29239;BME280;16267;48.194;11.546;2023-11-21T00:51:35;95400.06;;;7.90;91.91
29239;BME280;16267;48.194;11.546;2023-11-21T00:54:02;95400.06;;;7.93;92.39
29239;BME280;16267;48.194;11.546;2023-11-21T00:56:28;95406.13;;;7.97;93.73
29239;BME280;16267;48.194;11.546;2023-11-21T00:58:54;95398.16;;;7.94;91.94
29239;BME280;16267;48.194;11.546;2023-11-21T01:01:21;95405.38;;;7.97;93.05
29239;BME280;16267;48.194;11.546;2023-11-21T01:03:50;95400.06;;;7.93;92.24
29239;BME280;16267;48.194;11.546;2023-11-21T01:06:16;95402.31;;;7.98;93.19
29239;BME280;16267;48.194;11.546;2023-11-21T01:08:43;95391.97;;;8.00;92.42
29239;BME280;16267;48.194;11.546;2023-11-21T01:11:10;95395.00;;;8.02;90.96
29239;BME280;16267;48.194;11.546;2023-11-21T01:13:41;95399.97;;;8.04;90.01
29239;BME280;16267;48.194;11.546;2023-11-21T01:16:08;95399.91;;;8.08;89.69
29239;BME280;16267;48.194;11.546;2023-11-21T01:18:35;95402.59;;;8.08;89.16
29239;BME280;16267;48.194;11.546;2023-11-21T01:21:01;95404.84;;;8.09;89.65
29239;BME280;16267;48.194;11.546;2023-11-21T01:23:27;95402.19;;;8.09;89.07
29239;BME280;16267;48.194;11.546;2023-11-21T01:25:55;95406.78;;;8.09;88.49
29239;BME280;16267;48.194;11.546;2023-11-21T01:28:21;95415.53;;;8.09;88.72
29239;BME280;16267;48.194;11.546;2023-11-21T01:30:48;95414.41;;;8.10;88.19
29239;BME280;16267;48.194;11.546;2023-11-21T01:33:14;95410.56;;;8.11;87.65
29239;BME280;16267;48.194;11.546;2023-11-21T01:35:42;95410.19;;;8.13;87.35
29239;BME280;16267;48.194;11.546;2023-11-21T01:38:08;95409.44;;;8.12;87.44
29239;BME280;16267;48.194;11.546;2023-11-21T01:40:35;95404.84;;;8.13;87.63
29239;BME280;16267;48.194;11.546;2023-11-21T01:43:00;95407.09;;;8.14;87.33
29239;BME280;16267;48.194;11.546;2023-11-21T01:45:29;95405.97;;;8.15;86.38
29239;BME280;16267;48.194;11.546;2023-11-21T01:47:57;95410.13;;;8.16;87.11
29239;BME280;16267;48.194;11.546;2023-11-21T01:50:24;95409.78;;;8.14;87.75
29239;BME280;16267;48.194;11.546;2023-11-21T01:52:50;95417.41;;;8.16;87.71
29239;BME280;16267;48.194;11.546;2023-11-21T01:55:17;95417.41;;;8.16;87.66
29239;BME280;16267;48.194;11.546;2023-11-21T01:57:47;95419.66;;;8.17;87.23
29239;BME280;16267;48.194;11.546;2023-11-21T02:00:14;95432.66;;;8.19;86.72
29239;BME280;16267;48.194;11.546;2023-11-21T02:02:46;95424.63;;;8.19;86.71
29239;BME280;16267;48.194;11.546;2023-11-21T02:05:15;95428.81;;;8.20;87.08
29239;BME280;16267;48.194;11.546;2023-11-21T02:07:44;95427.66;;;8.21;87.10
29239;BME280;16267;48.194;11.546;2023-11-21T02:10:11;95436.44;;;8.21;87.05
29239;BME280;16267;48.194;11.546;2023-11-21T02:12:44;95423.81;;;8.22;87.27
29239;BME280;16267;48.194;11.546;2023-11-21T02:15:13;95428.78;;;8.23;87.01
29239;BME280;16267;48.194;11.546;2023-11-21T02:17:46;95434.94;;;8.17;86.70
29239;BME280;16267;48.194;11.546;2023-11-21T02:20:13;95436.13;;;8.16;87.97
29239;BME280;16267;48.194;11.546;2023-11-21T02:22:53;95436.19;;;8.09;89.63
29239;BME280;16267;48.194;11.546;2023-11-21T02:25:30;95438.50;;;8.07;88.83
29239;BME280;16267;48.194;11.546;2023-11-21T02:28:00;95430.44;;;8.10;89.84
29239;BME280;16267;48.194;11.546;2023-11-21T02:30:27;95432.00;;;8.08;90.00
29239;BME280;16267;48.194;11.546;2023-11-21T02:32:54;95426.28;;;8.05;89.93
29239;BME280;16267;48.194;11.546;2023-11-21T02:35:21;95429.41;;;7.97;91.55
29239;BME280;16267;48.194;11.546;2023-11-21T02:37:47;95425.56;;;7.98;91.56
29239;BME280;16267;48.194;11.546;2023-11-21T02:40:13;95424.53;;;7.88;92.04
29239;BME280;16267;48.194;11.546;2023-11-21T02:42:49;95425.25;;;7.92;93.75
29239;BME280;16267;48.194;11.546;2023-11-21T02:45:19;95418.78;;;7.93;93.24
29239;BME280;16267;48.194;11.546;2023-11-21T02:47:49;95411.13;;;7.95;93.42
29239;BME280;16267;48.194;11.546;2023-11-21T02:50:16;95410.72;;;7.97;93.18
29239;BME280;16267;48.194;11.546;2023-11-21T02:52:41;95403.53;;;7.90;92.26
29239;BME280;16267;48.194;11.546;2023-11-21T02:55:08;95406.59;;;7.89;93.33
29239;BME280;16267;48.194;11.546;2023-11-21T02:57:34;95409.59;;;7.94;93.94
29239;BME280;16267;48.194;11.546;2023-11-21T03:00:00;95405.38;;;7.97;93.66
29239;BME280;16267;48.194;11.546;2023-11-21T03:02:26;95399.28;;;7.96;93.39
29239;BME280;16267;48.194;11.546;2023-11-21T03:04:51;95404.63;;;7.96;93.29
29239;BME280;16267;48.194;11.546;2023-11-21T03:07:17;95397.72;;;7.99;93.01
29239;BME280;16267;48.194;11.546;2023-11-21T03:09:45;95405.72;;;7.99;92.44
29239;BME280;16267;48.194;11.546;2023-11-21T03:12:11;95406.44;;;8.03;92.06
29239;BME280;16267;48.194;11.546;2023-11-21T03:14:41;95406.06;;;8.04;91.76
29239;BME280;16267;48.194;11.546;2023-11-21T03:17:07;95403.38;;;8.04;91.26
29239;BME280;16267;48.194;11.546;2023-11-21T03:19:32;95397.63;;;8.06;90.78
29239;BME280;16267;48.194;11.546;2023-11-21T03:21:58;95389.97;;;8.08;90.09
29239;BME280;16267;48.194;11.546;2023-11-21T03:24:24;95390.75;;;8.09;90.13
29239;BME280;16267;48.194;11.546;2023-11-21T03:26:50;95396.84;;;8.09;89.50
29239;BME280;16267;48.194;11.546;2023-11-21T03:29:16;95390.34;;;8.10;90.40
29239;BME280;16267;48.194;11.546;2023-11-21T03:31:42;95388.44;;;8.11;90.44
29239;BME280;16267;48.194;11.546;2023-11-21T03:34:19;95390.34;;;8.10;89.84
29239;BME280;16267;48.194;11.546;2023-11-21T03:36:45;95391.09;;;8.11;90.04
29239;BME280;16267;48.194;11.546;2023-11-21T03:39:12;95397.19;;;8.11;89.90
29239;BME280;16267;48.194;11.546;2023-11-21T03:41:37;95390.34;;;8.10;89.88
29239;BME280;16267;48.194;11.546;2023-11-21T03:44:09;95392.66;;;8.08;90.27
29239;BME280;16267;48.194;11.546;2023-11-21T03:46:36;95385.81;;;8.07;90.64
29239;BME280;16267;48.194;11.546;2023-11-21T03:49:02;95387.72;;;8.07;91.18
29239;BME280;16267;48.194;11.546;2023-11-21T03:51:27;95388.09;;;8.05;91.48
29239;BME280;16267;48.194;11.546;2023-11-21T03:53:53;95379.38;;;8.01;90.83
29239;BME280;16267;48.194;11.546;2023-11-21T03:56:19;95380.53;;;8.00;91.15
29239;BME280;16267;48.194;11.546;2023-11-21T03:58:48;95386.66;;;7.97;92.15
29239;BME280;16267;48.194;11.546;2023-11-21T04:01:24;95384.03;;;7.93;91.06
29239;BME280;16267;48.194;11.546;2023-11-21T04:03:50;95386.72;;;7.93;91.87
29239;BME280;16267;48.194;11.546;2023-11-21T04:06:17;95384.41;;;7.92;91.82
29239;BME280;16267;48.194;11.546;2023-11-21T04:08:46;95384.41;;;7.92;91.44
29239;BME280;16267;48.194;11.546;2023-11-21T04:11:12;95386.84;;;7.79;90.32
29239;BME280;16267;48.194;11.546;2023-11-21T04:13:39;95383.72;;;7.84;91.68
29239;BME280;16267;48.194;11.546;2023-11-21T04:16:07;95390.59;;;7.85;91.70
29239;BME280;16267;48.194;11.546;2023-11-21T04:18:35;95381.84;;;7.81;91.20
29239;BME280;16267;48.194;11.546;2023-11-21T04:21:01;95386.44;;;7.80;91.98
29239;BME280;16267;48.194;11.546;2023-11-21T04:23:29;95389.53;;;7.75;91.04
29239;BME280;16267;48.194;11.546;2023-11-21T04:25:54;95388.38;;;7.76;92.28
29239;BME280;16267;48.194;11.546;2023-11-21T04:28:23;95391.16;;;7.66;92.20
29239;BME280;16267;48.194;11.546;2023-11-21T04:30:50;95399.91;;;7.66;92.90
29239;BME280;16267;48.194;11.546;2023-11-21T04:33:16;95398.38;;;7.69;93.40
29239;BME280;16267;48.194;11.546;2023-11-21T04:35:41;95403.72;;;7.69;92.68
29239;BME280;16267;48.194;11.546;2023-11-21T04:38:07;95398.50;;;7.54;93.88
29239;BME280;16267;48.194;11.546;2023-11-21T04:40:34;95398.47;;;7.58;94.78
29239;BME280;16267;48.194;11.546;2023-11-21T04:43:00;95397.34;;;7.55;94.10
29239;BME280;16267;48.194;11.546;2023-11-21T04:45:27;95398.91;;;7.49;95.60
29239;BME280;16267;48.194;11.546;2023-11-21T04:47:52;95390.53;;;7.47;95.47
29239;BME280;16267;48.194;11.546;2023-11-21T04:50:18;95395.84;;;7.51;95.27
29239;BME280;16267;48.194;11.546;2023-11-21T04:52:44;95394.28;;;7.53;96.05
29239;BME280;16267;48.194;11.546;2023-11-21T04:55:10;95403.09;;;7.54;96.19
29239;BME280;16267;48.194;11.546;2023-11-21T04:57:36;95403.88;;;7.47;95.73
29239;BME280;16267;48.194;11.546;2023-11-21T05:00:13;95406.56;;;7.47;96.38
29239;BME280;16267;48.194;11.546;2023-11-21T05:02:40;95408.84;;;7.45;96.40
29239;BME280;16267;48.194;11.546;2023-11-21T05:05:07;95407.72;;;7.46;96.32
29239;BME280;16267;48.194;11.546;2023-11-21T05:07:35;95409.22;;;7.47;96.24
29239;BME280;16267;48.194;11.546;2023-11-21T05:10:01;95406.13;;;7.52;96.14
29239;BME280;16267;48.194;11.546;2023-11-21T05:12:31;95411.13;;;7.47;94.73
29239;BME280;16267;48.194;11.546;2023-11-21T05:15:08;95409.97;;;7.51;95.79
29239;BME280;16267;48.194;11.546;2023-11-21T05:17:37;95408.06;;;7.52;95.28
29239;BME280;16267;48.194;11.546;2023-11-21T05:20:07;95414.59;;;7.44;95.42
29239;BME280;16267;48.194;11.546;2023-11-21T05:22:35;95417.25;;;7.44;94.94
29239;BME280;16267;48.194;11.546;2023-11-21T05:25:02;95413.03;;;7.50;95.79
29239;BME280;16267;48.194;11.546;2023-11-21T05:27:31;95418.78;;;7.45;94.80
29239;BME280;16267;48.194;11.546;2023-11-21T05:29:57;95419.53;;;7.45;95.38
29239;BME280;16267;48.194;11.546;2023-11-21T05:32:24;95411.84;;;7.51;95.62
29239;BME280;16267;48.194;11.546;2023-11-21T05:34:51;95418.00;;;7.48;94.59
29239;BME280;16267;48.194;11.546;2023-11-21T05:37:17;95418.41;;;7.46;94.87
29239;BME280;16267;48.194;11.546;2023-11-21T05:39:48;95427.53;;;7.49;94.85
29239;BME280;16267;48.194;11.546;2023-11-21T05:42:14;95419.88;;;7.51;95.41
29239;BME280;16267;48.194;11.546;2023-11-21T05:44:42;95421.81;;;7.47;94.53
29239;BME280;16267;48.194;11.546;2023-11-21T05:47:11;95423.44;;;7.33;95.39
29239;BME280;16267;48.194;11.546;2023-11-21T05:49:39;95430.22;;;7.45;96.47
29239;BME280;16267;48.194;11.546;2023-11-21T05:52:05;95432.88;;;7.49;95.49
29239;BME280;16267;48.194;11.546;2023-11-21T05:54:32;95429.44;;;7.48;94.41
29239;BME280;16267;48.194;11.546;2023-11-21T05:56:58;95429.06;;;7.46;94.25
29239;BME280;16267;48.194;11.546;2023-11-21T05:59:24;95435.50;;;7.52;94.94
29239;BME280;16267;48.194;11.546;2023-11-21T06:01:50;95429.03;;;7.50;94.14
29239;BME280;16267;48.194;11.546;2023-11-21T06:04:15;95426.00;;;7.51;93.72
29239;BME280;16267;48.194;11.546;2023-11-21T06:06:41;95436.66;;;7.51;94.33
29239;BME280;16267;48.194;11.546;2023-11-21T06:09:07;95439.75;;;7.46;93.50
29239;BME280;16267;48.194;11.546;2023-11-21T06:11:35;95436.28;;;7.49;94.24
29239;BME280;16267;48.194;11.546;2023-11-21T06:14:01;95441.28;;;7.44;94.45
29239;BME280;16267;48.194;11.546;2023-11-21T06:16:27;95442.84;;;7.41;94.62
29239;BME280;16267;48.194;11.546;2023-11-21T06:18:53;95447.47;;;7.33;95.41
29239;BME280;16267;48.194;11.546;2023-11-21T06:21:19;95445.88;;;7.40;96.26
29239;BME280;16267;48.194;11.546;2023-11-21T06:23:45;95451.59;;;7.42;95.67
29239;BME280;16267;48.194;11.546;2023-11-21T06:26:10;95454.69;;;7.40;94.91
29239;BME280;16267;48.194;11.546;2023-11-21T06:28:37;95450.19;;;7.26;94.77
29239;BME280;16267;48.194;11.546;2023-11-21T06:31:03;95459.66;;;7.38;96.40
29239;BME280;16267;48.194;11.546;2023-11-21T06:33:34;95460.03;;;7.40;95.59
29239;BME280;16267;48.194;11.546;2023-11-21T06:36:00;95455.44;;;7.41;95.73
29239;BME280;16267;48.194;11.546;2023-11-21T06:38:28;95458.88;;;7.37;93.91
29239;BME280;16267;48.194;11.546;2023-11-21T06:40:56;95458.06;;;7.44;95.28
29239;BME280;16267;48.194;11.546;2023-11-21T06:43:23;95457.31;;;7.44;92.66
29239;BME280;16267;48.194;11.546;2023-11-21T06:45:49;95458.22;;;7.19;92.70
29239;BME280;16267;48.194;11.546;2023-11-21T06:48:15;95464.72;;;7.18;92.79
29239;BME280;16267;48.194;11.546;2023-11-21T06:50:41;95468.03;;;7.36;94.68
29239;BME280;16267;48.194;11.546;2023-11-21T06:53:08;95468.03;;;7.36;93.33
29239;BME280;16267;48.194;11.546;2023-11-21T06:55:35;95464.97;;;7.38;92.23
29239;BME280;16267;48.194;11.546;2023-11-21T06:58:01;95472.28;;;7.30;92.53
29239;BME280;16267;48.194;11.546;2023-11-21T07:00:27;95476.06;;;7.33;93.48
29239;BME280;16267;48.194;11.546;2023-11-21T07:02:55;95479.94;;;7.25;92.49
29239;BME280;16267;48.194;11.546;2023-11-21T07:05:22;95481.88;;;7.21;92.48
29239;BME280;16267;48.194;11.546;2023-11-21T07:07:49;95481.50;;;7.19;92.71
29239;BME280;16267;48.194;11.546;2023-11-21T07:10:15;95482.63;;;7.18;93.07
29239;BME280;16267;48.194;11.546;2023-11-21T07:12:41;95485.66;;;7.23;93.12
29239;BME280;16267;48.194;11.546;2023-11-21T07:15:07;95491.78;;;7.17;91.94
29239;BME280;16267;48.194;11.546;2023-11-21T07:17:35;95497.88;;;7.21;92.80
29239;BME280;16267;48.194;11.546;2023-11-21T07:20:02;95499.78;;;7.24;92.66
29239;BME280;16267;48.194;11.546;2023-11-21T07:22:28;95500.91;;;7.23;91.65
29239;BME280;16267;48.194;11.546;2023-11-21T07:24:55;95495.13;;;7.31;93.40
29239;BME280;16267;48.194;11.546;2023-11-21T07:27:24;95505.78;;;7.38;92.63
29239;BME280;16267;48.194;11.546;2023-11-21T07:29:49;95506.91;;;7.41;92.30
29239;BME280;16267;48.194;11.546;2023-11-21T07:32:15;95510.31;;;7.45;92.00
29239;BME280;16267;48.194;11.546;2023-11-21T07:34:41;95500.75;;;7.48;91.29
29239;BME280;16267;48.194;11.546;2023-11-21T07:37:08;95510.69;;;7.47;91.17
29239;BME280;16267;48.194;11.546;2023-11-21T07:39:36;95511.03;;;7.53;90.77
29239;BME280;16267;48.194;11.546;2023-11-21T07:42:09;95508.34;;;7.56;91.52
29239;BME280;16267;48.194;11.546;2023-11-21T07:44:36;95507.16;;;7.61;90.81
29239;BME280;16267;48.194;11.546;2023-11-21T07:47:02;95513.63;;;7.67;90.96
29239;BME280;16267;48.194;11.546;2023-11-21T07:49:28;95508.31;;;7.64;89.92
29239;BME280;16267;48.194;11.546;2023-11-21T07:51:53;95510.94;;;7.71;89.97
29239;BME280;16267;48.194;11.546;2023-11-21T07:54:19;95512.84;;;7.67;89.16
29239;BME280;16267;48.194;11.546;2023-11-21T07:56:45;95515.88;;;7.72;89.28
29239;BME280;16267;48.194;11.546;2023-11-21T07:59:10;95513.53;;;7.78;89.98
29239;BME280;16267;48.194;11.546;2023-11-21T08:01:41;95511.22;;;7.83;90.14
29239;BME280;16267;48.194;11.546;2023-11-21T08:04:08;95515.41;;;7.85;88.84
29239;BME280;16267;48.194;11.546;2023-11-21T08:06:34;95519.22;;;7.87;89.54
29239;BME280;16267;48.194;11.546;2023-11-21T08:09:00;95520.31;;;7.93;88.05
29239;BME280;16267;48.194;11.546;2023-11-21T08:11:27;95520.28;;;7.97;89.27
29239;BME280;16267;48.194;11.546;2023-11-21T08:13:54;95516.81;;;8.00;87.46
29239;BME280;16267;48.194;11.546;2023-11-21T08:16:20;95520.97;;;8.04;86.89
29239;BME280;16267;48.194;11.546;2023-11-21T08:18:46;95517.19;;;8.02;86.51
29239;BME280;16267;48.194;11.546;2023-11-21T08:21:15;95524.38;;;8.09;87.09
29239;BME280;16267;48.194;11.546;2023-11-21T08:23:41;95520.50;;;8.17;87.10
29239;BME280;16267;48.194;11.546;2023-11-21T08:26:07;95512.81;;;8.22;88.48
29239;BME280;16267;48.194;11.546;2023-11-21T08:28:34;95513.94;;;8.25;87.84
29239;BME280;16267;48.194;11.546;2023-11-21T08:31:01;95522.66;;;8.33;87.42
29239;BME280;16267;48.194;11.546;2023-11-21T08:33:27;95512.66;;;8.37;87.62
29239;BME280;16267;48.194;11.546;2023-11-21T08:35:53;95518.13;;;8.26;85.78
29239;BME280;16267;48.194;11.546;2023-11-21T08:38:18;95509.28;;;8.33;86.76
29239;BME280;16267;48.194;11.546;2023-11-21T08:40:44;95520.81;;;8.26;86.84
29239;BME280;16267;48.194;11.546;2023-11-21T08:43:10;95517.72;;;8.27;86.35
29239;BME280;16267;48.194;11.546;2023-11-21T08:45:37;95512.41;;;8.24;85.26
29239;BME280;16267;48.194;11.546;2023-11-21T08:48:03;95518.47;;;8.32;84.75
29239;BME280;16267;48.194;11.546;2023-11-21T08:50:29;95515.75;;;8.35;84.96
29239;BME280;16267;48.194;11.546;2023-11-21T08:53:02;95522.59;;;8.36;84.87
29239;BME280;16267;48.194;11.546;2023-11-21T08:55:35;95525.00;;;8.27;84.79
29239;BME280;16267;48.194;11.546;2023-11-21T08:58:03;95520.34;;;8.31;84.38
29239;BME280;16267;48.194;11.546;2023-11-21T09:00:32;95529.56;;;8.30;85.25
29239;BME280;16267;48.194;11.546;2023-11-21T09:02:58;95528.34;;;8.38;85.12
29239;BME280;16267;48.194;11.546;2023-11-21T09:05:23;95524.09;;;8.48;86.46
29239;BME280;16267;48.194;11.546;2023-11-21T09:07:49;95526.72;;;8.52;86.20
29239;BME280;16267;48.194;11.546;2023-11-21T09:10:15;95525.66;;;8.42;84.54
29239;BME280;16267;48.194;11.546;2023-11-21T09:12:41;95536.34;;;8.38;84.71
29239;BME280;16267;48.194;11.546;2023-11-21T09:15:09;95538.31;;;8.34;84.54
29239;BME280;16267;48.194;11.546;2023-11-21T09:17:38;95545.16;;;8.35;84.38
29239;BME280;16267;48.194;11.546;2023-11-21T09:20:05;95543.94;;;8.47;84.31
29239;BME280;16267;48.194;11.546;2023-11-21T09:22:33;95542.03;;;8.47;84.58
29239;BME280;16267;48.194;11.546;2023-11-21T09:24:59;95535.44;;;8.59;84.98
29239;BME280;16267;48.194;11.546;2023-11-21T09:27:24;95544.44;;;8.73;85.09
29239;BME280;16267;48.194;11.546;2023-11-21T09:29:51;95547.59;;;8.64;84.23
29239;BME280;16267;48.194;11.546;2023-11-21T09:32:18;95547.44;;;8.82;84.57
29239;BME280;16267;48.194;11.546;2023-11-21T09:34:44;95548.97;;;8.79;83.70
29239;BME280;16267;48.194;11.546;2023-11-21T09:37:10;95555.34;;;8.92;83.99
29239;BME280;16267;48.194;11.546;2023-11-21T09:39:36;95550.84;;;8.82;83.48
29239;BME280;16267;48.194;11.546;2023-11-21T09:42:14;95550.66;;;9.00;84.05
29239;BME280;16267;48.194;11.546;2023-11-21T09:45:25;95550.16;;;9.09;84.42
29239;BME280;16267;48.194;11.546;2023-11-21T09:47:53;95547.19;;;9.03;83.25
29239;BME280;16267;48.194;11.546;2023-11-21T09:50:22;95544.66;;;8.92;82.74
29239;BME280;16267;48.194;11.546;2023-11-21T09:53:18;95547.22;;;9.00;83.09
29239;BME280;16267;48.194;11.546;2023-11-21T09:55:51;95547.75;;;8.87;82.28
29239;BME280;16267;48.194;11.546;2023-11-21T09:58:18;95541.47;;;9.01;82.57
29239;BME280;16267;48.194;11.546;2023-11-21T10:00:47;95544.47;;;9.07;81.99
29239;BME280;16267;48.194;11.546;2023-11-21T10:03:14;95549.66;;;9.21;83.78
29239;BME280;16267;48.194;11.546;2023-11-21T10:05:42;95546.50;;;9.30;83.12
29239;BME280;16267;48.194;11.546;2023-11-21T10:08:11;95544.88;;;9.36;83.59
29239;BME280;16267;48.194;11.546;2023-11-21T10:10:42;95549.28;;;9.50;83.08
29239;BME280;16267;48.194;11.546;2023-11-21T10:13:12;95545.50;;;9.74;82.43
29239;BME280;16267;48.194;11.546;2023-11-21T10:15:42;95551.09;;;9.87;80.58
29239;BME280;16267;48.194;11.546;2023-11-21T10:18:15;95552.28;;;10.10;80.53
29239;BME280;16267;48.194;11.546;2023-11-21T10:20:41;95545.22;;;9.96;79.53
29239;BME280;16267;48.194;11.546;2023-11-21T10:23:07;95535.97;;;10.00;78.88
29239;BME280;16267;48.194;11.546;2023-11-21T10:25:37;95539.66;;;9.83;77.16
29239;BME280;16267;48.194;11.546;2023-11-21T10:28:04;95539.31;;;9.81;77.96
29239;BME280;16267;48.194;11.546;2023-11-21T10:30:35;95540.84;;;10.05;77.61
29239;BME280;16267;48.194;11.546;2023-11-21T10:33:05;95550.50;;;9.99;77.01
29239;BME280;16267;48.194;11.546;2023-11-21T10:35:44;95545.09;;;10.03;78.48
29239;BME280;16267;48.194;11.546;2023-11-21T10:38:14;95547.44;;;10.01;77.78
29239;BME280;16267;48.194;11.546;2023-11-21T10:40:44;95546.63;;;10.04;78.15
29239;BME280;16267;48.194;11.546;2023-11-21T10:43:12;95552.88;;;9.94;77.93
29239;BME280;16267;48.194;11.546;2023-11-21T10:45:39;95555.56;;;9.94;78.90
29239;BME280;16267;48.194;11.546;2023-11-21T10:48:06;95554.53;;;9.88;78.90
29239;BME280;16267;48.194;11.546;2023-11-21T10:50:36;95556.31;;;9.94;78.99
29239;BME280;16267;48.194;11.546;2023-11-21T10:53:04;95546.84;;;9.90;79.63
29239;BME280;16267;48.194;11.546;2023-11-21T10:55:32;95551.91;;;9.84;79.54
29239;BME280;16267;48.194;11.546;2023-11-21T10:58:05;95544.97;;;9.87;79.88
29239;BME280;16267;48.194;11.546;2023-11-21T11:00:33;95544.91;;;9.90;78.49
29239;BME280;16267;48.194;11.546;2023-11-21T11:02:59;95548.66;;;9.96;79.75
29239;BME280;16267;48.194;11.546;2023-11-21T11:05:27;95548.72;;;10.16;80.23
29239;BME280;16267;48.194;11.546;2023-11-21T11:08:08;95546.91;;;10.10;77.33
29239;BME280;16267;48.194;11.546;2023-11-21T11:10:37;95538.75;;;10.17;78.38
29239;BME280;16267;48.194;11.546;2023-11-21T11:13:04;95537.47;;;10.25;78.65
29239;BME280;16267;48.194;11.546;2023-11-21T11:15:32;95540.13;;;10.29;78.88
29239;BME280;16267;48.194;11.546;2023-11-21T11:17:59;95538.13;;;10.33;79.31
29239;BME280;16267;48.194;11.546;2023-11-21T11:20:34;95544.25;;;10.33;78.15
29239;BME280;16267;48.194;11.546;2023-11-21T11:23:30;95543.50;;;10.33;77.47
29239;BME280;16267;48.194;11.546;2023-11-21T11:26:32;95543.22;;;10.27;76.93
29239;BME280;16267;48.194;11.546;2023-11-21T11:29:35;95538.75;;;10.17;75.09
29239;BME280;16267;48.194;11.546;2023-11-21T11:35:34;95540.97;;;10.22;76.65
29239;BME280;16267;48.194;11.546;2023-11-21T11:38:03;95548.72;;;10.16;75.31
29239;BME280;16267;48.194;11.546;2023-11-21T11:40:45;95545.19;;;10.23;76.61
29239;BME280;16267;48.194;11.546;2023-11-21T11:43:12;95540.97;;;10.22;76.78
29239;BME280;16267;48.194;11.546;2023-11-21T11:45:38;95540.56;;;10.23;75.44
29239;BME280;16267;48.194;11.546;2023-11-21T11:48:10;95527.50;;;10.25;75.40
29239;BME280;16267;48.194;11.546;2023-11-21T11:53:48;95533.88;;;10.35;76.04
29239;BME280;16267;48.194;11.546;2023-11-21T11:56:23;95539.53;;;10.41;75.61
29239;BME280;16267;48.194;11.546;2023-11-21T11:58:58;95531.09;;;10.42;74.52
29239;BME280;16267;48.194;11.546;2023-11-21T12:01:26;95534.09;;;10.44;74.57
29239;BME280;16267;48.194;11.546;2023-11-21T12:06:42;95529.38;;;10.52;74.39
29239;BME280;16267;48.194;11.546;2023-11-21T12:11:46;95532.69;;;10.60;74.92
29239;BME280;16267;48.194;11.546;2023-11-21T12:14:13;95532.28;;;10.61;75.05
29239;BME280;16267;48.194;11.546;2023-11-21T12:16:40;95535.66;;;10.65;75.06
29239;BME280;16267;48.194;11.546;2023-11-21T12:19:05;95529.47;;;10.68;75.61
29239;BME280;16267;48.194;11.546;2023-11-21T12:21:32;95531.06;;;10.66;74.58
29239;BME280;16267;48.194;11.546;2023-11-21T12:23:58;95536.13;;;10.60;74.53
29239;BME280;16267;48.194;11.546;2023-11-21T12:26:24;95533.88;;;10.59;74.67
29239;BME280;16267;48.194;11.546;2023-11-21T12:28:53;95538.34;;;10.42;73.88
29239;BME280;16267;48.194;11.546;2023-11-21T12:31:25;95541.81;;;10.42;75.27
29239;BME280;16267;48.194;11.546;2023-11-21T12:33:51;95528.72;;;10.44;75.09
29239;BME280;16267;48.194;11.546;2023-11-21T12:36:17;95537.56;;;10.45;75.29
29239;BME280;16267;48.194;11.546;2023-11-21T12:38:43;95531.78;;;10.46;75.41
29239;BME280;16267;48.194;11.546;2023-11-21T12:41:12;95531.38;;;10.48;76.05
29239;BME280;16267;48.194;11.546;2023-11-21T12:43:38;95534.81;;;10.48;75.73
29239;BME280;16267;48.194;11.546;2023-11-21T12:46:09;95535.56;;;10.49;76.21
29239;BME280;16267;48.194;11.546;2023-11-21T12:48:38;95535.16;;;10.51;75.53
29239;BME280;16267;48.194;11.546;2023-11-21T12:51:12;95540.19;;;10.48;74.68
29239;BME280;16267;48.194;11.546;2023-11-21T12:53:40;95542.13;;;10.48;74.02
29239;BME280;16267;48.194;11.546;2023-11-21T12:56:10;95541.00;;;10.45;74.16
29239;BME280;16267;48.194;11.546;2023-11-21T12:58:37;95546.00;;;10.43;74.53
29239;BME280;16267;48.194;11.546;2023-11-21T13:01:08;95547.13;;;10.46;74.82
29239;BME280;16267;48.194;11.546;2023-11-21T13:03:48;95547.53;;;10.44;74.61
29239;BME280;16267;48.194;11.546;2023-11-21T13:06:15;95551.09;;;10.38;75.79
29239;BME280;16267;48.194;11.546;2023-11-21T13:08:41;95552.81;;;10.24;78.15
29239;BME280;16267;48.194;11.546;2023-11-21T13:11:11;95551.47;;;10.13;80.71
29239;BME280;16267;48.194;11.546;2023-11-21T13:13:42;95548.88;;;10.05;80.83